createdAt,value
2018-05-25T00:00:55.250Z,19.92
2018-05-25T00:03:21.278Z,19.87
2018-05-25T00:05:47.302Z,19.81
2018-05-25T00:08:13.303Z,19.97
2018-05-25T00:10:39.306Z,19.78
2018-05-25T00:13:05.290Z,19.66
2018-05-25T00:15:31.316Z,19.61
2018-05-25T00:17:57.319Z,19.62
2018-05-25T00:20:23.324Z,19.59
2018-05-25T00:22:49.332Z,19.49
2018-05-25T00:25:15.343Z,19.54
2018-05-25T00:27:41.329Z,19.49
2018-05-25T00:30:07.379Z,19.46
2018-05-25T00:32:33.377Z,19.37
2018-05-25T00:34:59.442Z,19.49
2018-05-25T00:37:25.442Z,19.59
2018-05-25T00:39:51.475Z,19.50
2018-05-25T00:42:17.473Z,19.44
2018-05-25T00:44:43.476Z,19.45
2018-05-25T00:47:09.480Z,19.64
2018-05-25T00:49:35.490Z,19.45
2018-05-25T00:52:01.523Z,19.59
2018-05-25T00:54:27.524Z,19.61
2018-05-25T00:56:53.523Z,19.14
2018-05-25T00:59:19.511Z,19.07
2018-05-25T01:01:45.523Z,19.11
2018-05-25T01:04:11.544Z,19.04
2018-05-25T01:06:37.552Z,18.86
2018-05-25T01:09:03.606Z,19.14
2018-05-25T01:11:29.637Z,19.08
2018-05-25T01:13:55.670Z,18.96
2018-05-25T01:16:21.685Z,18.91
2018-05-25T01:18:47.702Z,19.21
2018-05-25T01:21:13.707Z,19.25
2018-05-25T01:23:39.688Z,19.10
2018-05-25T01:26:05.697Z,19.20
2018-05-25T01:28:31.711Z,19.20
2018-05-25T01:30:57.737Z,18.85
2018-05-25T01:33:23.736Z,18.81
2018-05-25T01:35:49.760Z,18.75
2018-05-25T01:38:15.748Z,19.14
2018-05-25T01:40:41.777Z,19.23
2018-05-25T01:45:40.258Z,18.64
2018-05-25T01:48:06.282Z,18.49
2018-05-25T01:50:32.281Z,18.49
2018-05-25T01:52:58.265Z,18.57
2018-05-25T01:55:24.237Z,18.46
2018-05-25T01:57:50.218Z,18.58
2018-05-25T02:00:16.232Z,18.65
2018-05-25T02:02:42.232Z,18.58
2018-05-25T02:05:08.267Z,18.65
2018-05-25T02:07:34.248Z,18.80
2018-05-25T02:10:00.241Z,18.81
2018-05-25T02:12:26.258Z,19.01
2018-05-25T02:14:52.298Z,18.74
2018-05-25T02:17:18.291Z,18.94
2018-05-25T02:19:44.303Z,18.88
2018-05-25T02:22:10.289Z,18.82
2018-05-25T02:24:36.280Z,18.82
2018-05-25T02:27:02.263Z,18.80
2018-05-25T02:29:28.293Z,18.93
2018-05-25T02:31:54.296Z,18.73
2018-05-25T02:34:20.309Z,18.38
2018-05-25T02:36:46.317Z,18.77
2018-05-25T02:39:12.326Z,18.74
2018-05-25T02:41:38.347Z,18.50
2018-05-25T02:44:04.366Z,18.64
2018-05-25T02:46:30.372Z,18.77
2018-05-25T02:48:56.372Z,18.81
2018-05-25T02:51:22.387Z,18.78
2018-05-25T02:53:48.403Z,18.71
2018-05-25T02:56:14.437Z,18.59
2018-05-25T02:58:40.441Z,18.70
2018-05-25T03:01:06.440Z,18.44
2018-05-25T03:03:32.447Z,18.49
2018-05-25T03:05:58.445Z,18.50
2018-05-25T03:08:24.467Z,18.38
2018-05-25T03:10:50.467Z,18.40
2018-05-25T03:13:16.463Z,18.48
2018-05-25T03:15:42.458Z,18.61
2018-05-25T03:18:08.463Z,18.49
2018-05-25T03:20:34.450Z,18.51
2018-05-25T03:23:00.454Z,18.34
2018-05-25T03:25:26.468Z,18.31
2018-05-25T03:27:52.517Z,18.67
2018-05-25T03:30:18.542Z,18.75
2018-05-25T03:32:44.574Z,18.83
2018-05-25T03:35:10.587Z,18.90
2018-05-25T03:37:36.612Z,18.88
2018-05-25T03:40:02.608Z,18.76
2018-05-25T03:42:28.627Z,18.74
2018-05-25T03:44:54.639Z,18.80
2018-05-25T03:47:20.671Z,18.61
2018-05-25T03:49:46.690Z,18.61
2018-05-25T03:52:12.706Z,18.68
2018-05-25T03:54:38.721Z,18.62
2018-05-25T03:57:04.724Z,18.48
2018-05-25T03:59:30.701Z,18.61
2018-05-25T04:01:56.699Z,18.59
2018-05-25T04:04:22.719Z,18.87
2018-05-25T04:06:48.724Z,18.91
2018-05-25T04:09:14.730Z,18.83
2018-05-25T04:11:40.755Z,18.84
2018-05-25T04:14:06.742Z,18.67
2018-05-25T04:16:32.833Z,19.04
2018-05-25T04:18:58.831Z,19.29
2018-05-25T04:21:24.842Z,19.60
2018-05-25T04:23:50.865Z,19.61
2018-05-25T04:26:16.872Z,19.80
2018-05-25T04:28:42.888Z,19.98
2018-05-25T04:31:08.888Z,20.52
2018-05-25T04:33:34.917Z,20.31
2018-05-25T04:36:00.908Z,20.39
2018-05-25T04:38:26.915Z,20.69
2018-05-25T04:40:52.915Z,20.97
2018-05-25T04:43:18.984Z,20.95
2018-05-25T04:45:45.008Z,21.03
2018-05-25T04:48:11.006Z,20.83
2018-05-25T04:50:37.011Z,21.01
2018-05-25T04:53:03.057Z,21.26
2018-05-25T04:55:29.077Z,21.10
2018-05-25T04:57:55.112Z,20.78
2018-05-25T05:00:21.158Z,20.68
2018-05-25T05:02:47.168Z,20.57
2018-05-25T05:05:13.165Z,20.31
2018-05-25T05:07:39.159Z,20.32
2018-05-25T05:10:05.173Z,20.06
2018-05-25T05:12:31.203Z,20.03
2018-05-25T05:14:57.236Z,19.85
2018-05-25T05:17:23.300Z,19.80
2018-05-25T05:19:49.343Z,19.77
2018-05-25T05:22:15.379Z,20.02
2018-05-25T05:24:41.389Z,20.84
2018-05-25T05:27:07.408Z,21.67
2018-05-25T05:29:33.418Z,21.95
2018-05-25T05:31:59.478Z,22.06
2018-05-25T05:34:25.498Z,22.14
2018-05-25T05:36:51.533Z,22.88
2018-05-25T05:39:17.584Z,23.27
2018-05-25T05:41:43.580Z,23.42
2018-05-25T05:44:09.611Z,23.19
2018-05-25T05:46:35.604Z,23.04
2018-05-25T05:49:01.651Z,22.89
2018-05-25T05:51:27.667Z,22.92
2018-05-25T05:53:53.695Z,23.46
2018-05-25T05:56:19.710Z,23.31
2018-05-25T05:58:45.732Z,23.94
2018-05-25T06:01:11.730Z,23.41
2018-05-25T06:03:37.752Z,23.69
2018-05-25T06:06:03.771Z,23.89
2018-05-25T06:08:29.832Z,24.15
2018-05-25T06:10:55.858Z,24.39
2018-05-25T06:13:21.893Z,24.79
2018-05-25T06:15:47.908Z,24.52
2018-05-25T06:18:13.994Z,24.68
2018-05-25T06:20:39.998Z,24.50
2018-05-25T06:23:06.003Z,24.74
2018-05-25T06:25:32.025Z,24.97
2018-05-25T06:27:58.036Z,25.30
2018-05-25T06:30:24.063Z,25.11
2018-05-25T06:32:50.069Z,25.69
2018-05-25T06:35:16.145Z,25.37
2018-05-25T06:37:42.325Z,25.55
2018-05-25T06:40:08.374Z,26.02
2018-05-25T06:42:34.385Z,26.71
2018-05-25T06:45:00.388Z,26.69
2018-05-25T06:47:26.396Z,26.29
2018-05-25T06:49:52.387Z,26.24
2018-05-25T06:52:18.422Z,26.60
2018-05-25T06:54:44.428Z,27.31
2018-05-25T06:57:10.447Z,27.22
2018-05-25T06:59:36.482Z,27.88
2018-05-25T07:02:02.495Z,28.36
2018-05-25T07:04:28.525Z,28.55
2018-05-25T07:06:54.509Z,29.00
2018-05-25T07:09:20.525Z,29.33
2018-05-25T07:11:46.531Z,29.55
2018-05-25T07:14:12.552Z,29.95
2018-05-25T07:16:38.537Z,29.24
2018-05-25T07:19:04.555Z,29.30
2018-05-25T07:21:30.537Z,29.14
2018-05-25T07:23:56.553Z,28.95
2018-05-25T07:26:22.538Z,30.20
2018-05-25T07:28:49.101Z,29.75
2018-05-25T07:31:15.130Z,29.45
2018-05-25T07:33:41.148Z,29.91
2018-05-25T07:36:07.149Z,30.37
2018-05-25T07:38:33.134Z,30.24
2018-05-25T07:40:59.140Z,29.87
2018-05-25T07:43:25.208Z,30.14
2018-05-25T07:45:51.251Z,29.58
2018-05-25T07:48:17.275Z,27.70
2018-05-25T07:50:43.289Z,27.46
2018-05-25T07:53:09.284Z,28.41
2018-05-25T07:55:35.297Z,28.59
2018-05-25T07:58:01.296Z,29.51
2018-05-25T08:00:27.302Z,29.65
2018-05-25T08:02:53.347Z,29.76
2018-05-25T08:05:19.361Z,28.62
2018-05-25T08:07:45.376Z,28.29
2018-05-25T08:10:11.392Z,28.60
2018-05-25T08:12:37.403Z,29.00
2018-05-25T08:15:03.468Z,28.60
2018-05-25T08:17:29.477Z,27.32
2018-05-25T08:19:55.495Z,26.69
2018-05-25T08:22:21.496Z,27.31
2018-05-25T08:24:47.562Z,27.62
2018-05-25T08:27:13.582Z,27.56
2018-05-25T08:29:39.637Z,27.34
2018-05-25T08:32:05.670Z,26.54
2018-05-25T08:34:31.677Z,25.42
2018-05-25T08:36:57.656Z,25.53
2018-05-25T08:39:23.689Z,25.95
2018-05-25T08:41:49.715Z,26.03
2018-05-25T08:44:15.728Z,25.70
2018-05-25T08:46:41.748Z,25.86
2018-05-25T08:49:07.745Z,25.47
2018-05-25T08:51:33.744Z,25.41
2018-05-25T08:53:59.767Z,25.46
2018-05-25T08:56:25.760Z,25.37
2018-05-25T08:58:51.764Z,25.27
2018-05-25T09:01:17.807Z,25.23
2018-05-25T09:03:43.817Z,25.17
2018-05-25T09:06:09.844Z,24.87
2018-05-25T09:08:35.897Z,24.92
2018-05-25T09:11:01.879Z,25.05
2018-05-25T09:13:27.881Z,24.99
2018-05-25T09:15:53.899Z,25.04
2018-05-25T09:18:19.908Z,25.01
2018-05-25T09:20:45.924Z,24.75
2018-05-25T09:23:11.924Z,24.86
2018-05-25T09:25:37.993Z,24.98
2018-05-25T09:28:04.023Z,24.79
2018-05-25T09:30:30.042Z,24.76
2018-05-25T09:32:56.059Z,24.65
2018-05-25T09:35:22.106Z,24.67
2018-05-25T09:37:48.098Z,24.80
2018-05-25T09:40:14.121Z,24.89
2018-05-25T09:42:40.131Z,24.74
2018-05-25T09:45:06.175Z,24.53
2018-05-25T09:47:32.200Z,24.58
2018-05-25T09:49:58.244Z,24.44
2018-05-25T09:52:24.296Z,24.35
2018-05-25T09:54:50.320Z,24.60
2018-05-25T09:57:16.363Z,24.64
2018-05-25T09:59:42.395Z,24.53
2018-05-25T10:02:08.410Z,24.53
2018-05-25T10:04:34.416Z,24.54
2018-05-25T10:07:00.452Z,24.45
2018-05-25T10:09:26.471Z,24.40
2018-05-25T10:11:52.495Z,24.51
2018-05-25T10:14:18.535Z,24.70
2018-05-25T10:16:44.534Z,24.69
2018-05-25T10:19:10.548Z,24.58
2018-05-25T10:21:36.569Z,24.67
2018-05-25T10:24:02.571Z,24.69
2018-05-25T10:26:28.612Z,24.73
2018-05-25T10:28:54.607Z,24.79
2018-05-25T10:31:20.596Z,24.83
2018-05-25T10:33:46.620Z,24.64
2018-05-25T10:36:12.646Z,24.51
2018-05-25T10:38:38.648Z,24.63
2018-05-25T10:41:04.684Z,24.60
2018-05-25T10:43:30.657Z,24.49
2018-05-25T10:45:56.649Z,24.60
2018-05-25T10:48:22.620Z,24.53
2018-05-25T10:50:48.566Z,24.54
2018-05-25T10:53:14.550Z,24.66
2018-05-25T10:55:40.523Z,24.71
2018-05-25T10:58:06.475Z,24.68
2018-05-25T11:00:32.433Z,24.76
2018-05-25T11:02:58.387Z,24.69
2018-05-25T11:05:24.330Z,24.57
2018-05-25T11:07:50.328Z,24.63
2018-05-25T11:10:16.291Z,24.50
2018-05-25T11:12:42.262Z,24.56
2018-05-25T11:15:08.235Z,24.63
2018-05-25T11:17:34.206Z,24.80
2018-05-25T11:20:00.188Z,24.77
2018-05-25T11:22:26.168Z,24.86
2018-05-25T11:24:52.109Z,24.87
2018-05-25T11:27:18.081Z,24.75
2018-05-25T11:29:44.048Z,24.89
2018-05-25T11:32:10.017Z,24.79
2018-05-25T11:34:35.978Z,24.83
2018-05-25T11:37:01.982Z,24.81
2018-05-25T11:39:27.976Z,24.92
2018-05-25T11:41:53.929Z,24.97
2018-05-25T11:44:19.881Z,24.86
2018-05-25T11:46:45.858Z,24.79
2018-05-25T11:49:11.820Z,24.66
2018-05-25T11:51:37.780Z,24.54
2018-05-25T11:54:03.746Z,24.59
2018-05-25T11:56:29.722Z,24.66
2018-05-25T11:58:55.765Z,24.72
2018-05-25T12:01:21.722Z,24.56
2018-05-25T12:03:47.696Z,24.48
2018-05-25T12:06:13.638Z,24.44
2018-05-25T12:08:39.629Z,24.58
2018-05-25T12:11:05.590Z,24.69
2018-05-25T12:13:31.541Z,24.71
2018-05-25T12:15:57.500Z,24.80
2018-05-25T12:18:23.474Z,24.60
2018-05-25T12:20:49.458Z,24.70
2018-05-25T12:23:15.467Z,24.74
2018-05-25T12:25:41.462Z,24.97
2018-05-25T12:28:07.464Z,24.98
2018-05-25T12:30:33.426Z,24.76
2018-05-25T12:32:59.406Z,24.87
2018-05-25T12:35:25.394Z,24.97
2018-05-25T12:37:51.352Z,24.96
2018-05-25T12:40:17.307Z,24.82
2018-05-25T12:42:43.297Z,24.85
2018-05-25T12:45:09.286Z,24.90
2018-05-25T12:47:35.273Z,24.72
2018-05-25T12:50:01.222Z,24.84
2018-05-25T12:52:27.184Z,24.77
2018-05-25T12:54:53.195Z,24.87
2018-05-25T12:57:19.179Z,24.87
2018-05-25T12:59:45.144Z,24.87
2018-05-25T13:02:11.090Z,24.90
2018-05-25T13:04:37.074Z,24.87
2018-05-25T13:07:03.027Z,24.76
2018-05-25T13:09:28.989Z,24.76
2018-05-25T13:11:54.956Z,24.84
2018-05-25T13:14:20.926Z,24.83
2018-05-25T13:16:46.997Z,22.71
2018-05-25T13:19:12.981Z,24.24
2018-05-25T13:21:39.040Z,24.74
2018-05-25T13:24:05.023Z,24.87
2018-05-25T13:26:31.059Z,24.97
2018-05-25T13:28:57.046Z,24.91
2018-05-25T13:31:22.990Z,24.89
2018-05-25T13:33:48.952Z,24.90
2018-05-25T13:36:14.896Z,24.82
2018-05-25T13:38:40.880Z,25.01
2018-05-25T13:41:06.840Z,24.93
2018-05-25T13:43:32.859Z,25.06
2018-05-25T13:45:58.815Z,25.10
2018-05-25T13:48:24.812Z,25.11
2018-05-25T13:50:50.771Z,25.00
2018-05-25T13:53:16.780Z,24.95
2018-05-25T13:55:42.751Z,25.20
2018-05-25T13:58:08.752Z,25.09
2018-05-25T14:00:34.782Z,25.18
2018-05-25T14:03:00.753Z,25.10
2018-05-25T14:05:26.719Z,25.16
2018-05-25T14:07:52.673Z,25.21
2018-05-25T14:10:18.710Z,25.11
2018-05-25T14:12:44.668Z,25.25
2018-05-25T14:15:10.732Z,25.17
2018-05-25T14:17:36.773Z,25.03
2018-05-25T14:20:02.735Z,24.98
2018-05-25T14:22:28.673Z,25.01
2018-05-25T14:24:54.660Z,25.14
2018-05-25T14:27:20.595Z,24.98
2018-05-25T14:29:46.688Z,24.98
2018-05-25T14:32:12.699Z,25.00
2018-05-25T14:34:38.649Z,25.02
2018-05-25T14:37:04.573Z,25.05
2018-05-25T14:39:30.540Z,24.96
2018-05-25T14:41:56.517Z,24.93
2018-05-25T14:44:22.538Z,25.04
2018-05-25T14:46:48.944Z,25.12
2018-05-25T14:49:14.910Z,25.10
2018-05-25T14:51:40.857Z,25.16
2018-05-25T14:54:06.806Z,25.03
2018-05-25T14:56:32.986Z,25.07
2018-05-25T14:58:59.020Z,25.16
2018-05-25T15:01:24.974Z,25.16
2018-05-25T15:03:51.106Z,25.15
2018-05-25T15:06:17.094Z,25.13
2018-05-25T15:08:43.081Z,25.27
2018-05-25T15:11:09.114Z,25.21
2018-05-25T15:13:35.322Z,25.23
2018-05-25T15:16:01.472Z,25.11
2018-05-25T15:18:27.511Z,25.09
2018-05-25T15:20:53.471Z,25.09
2018-05-25T15:23:19.437Z,25.08
2018-05-25T15:28:22.461Z,25.07
2018-05-25T15:33:21.118Z,25.12
2018-05-25T15:35:47.213Z,25.13
2018-05-25T15:38:17.642Z,25.19
2018-05-25T15:40:44.104Z,25.06
2018-05-25T15:43:10.179Z,25.15
2018-05-25T15:45:36.167Z,25.09
2018-05-25T15:48:02.202Z,25.08
2018-05-25T15:50:28.332Z,25.22
2018-05-25T15:52:55.380Z,25.22
2018-05-25T15:55:21.442Z,25.20
2018-05-25T15:57:47.585Z,25.02
2018-05-25T16:00:13.643Z,24.36
2018-05-25T16:02:39.753Z,23.95
2018-05-25T16:05:05.773Z,23.77
2018-05-25T16:07:31.944Z,23.55
2018-05-25T16:09:57.973Z,23.81
2018-05-25T16:12:23.959Z,23.85
2018-05-25T16:14:49.942Z,23.64
2018-05-25T16:17:15.896Z,23.61
2018-05-25T16:19:41.902Z,23.51
2018-05-25T16:22:08.255Z,23.44
2018-05-25T16:24:34.270Z,23.36
2018-05-25T16:27:00.233Z,23.23
2018-05-25T16:29:26.211Z,23.53
2018-05-25T16:31:52.339Z,23.68
2018-05-25T16:34:20.123Z,23.22
2018-05-25T16:36:47.133Z,23.02
2018-05-25T16:39:13.148Z,23.18
2018-05-25T16:41:39.260Z,23.68
2018-05-25T16:44:05.394Z,23.45
2018-05-25T16:46:31.365Z,23.49
2018-05-25T16:48:57.779Z,23.00
2018-05-25T16:51:23.800Z,23.49
2018-05-25T16:53:50.902Z,23.55
2018-05-25T16:56:16.948Z,23.35
2018-05-25T16:58:43.028Z,23.36
2018-05-25T17:01:09.029Z,23.22
2018-05-25T17:03:42.152Z,23.15
2018-05-25T17:06:08.298Z,23.33
2018-05-25T17:08:34.289Z,23.22
2018-05-25T17:11:00.872Z,23.24
2018-05-25T17:13:27.177Z,23.01
2018-05-25T17:15:56.273Z,23.39
2018-05-25T17:18:22.440Z,23.31
2018-05-25T17:20:48.442Z,23.22
2018-05-25T17:23:14.533Z,23.21
2018-05-25T17:25:40.554Z,23.34
2018-05-25T17:28:07.966Z,23.39
2018-05-25T17:30:34.004Z,23.52
2018-05-25T17:33:00.001Z,23.54
2018-05-25T17:35:29.327Z,23.81
2018-05-25T17:37:55.741Z,23.72
2018-05-25T17:40:23.788Z,23.74
2018-05-25T17:42:49.981Z,23.54
2018-05-25T17:45:16.256Z,23.64
2018-05-25T17:47:42.250Z,23.45
2018-05-25T17:50:08.297Z,23.46
2018-05-25T17:52:34.973Z,23.60
2018-05-25T17:55:01.985Z,23.64
2018-05-25T17:57:28.135Z,23.78
2018-05-25T17:59:54.775Z,23.64
2018-05-25T18:02:20.858Z,23.60
2018-05-25T18:04:47.114Z,23.75
2018-05-25T18:07:13.085Z,23.69
2018-05-25T18:09:39.279Z,23.66
2018-05-25T18:12:05.253Z,23.70
2018-05-25T18:14:31.463Z,23.77
2018-05-25T18:16:57.415Z,23.79
2018-05-25T18:19:23.357Z,23.85
2018-05-25T18:21:50.306Z,23.84
2018-05-25T18:24:16.443Z,23.96
2018-05-25T18:26:42.387Z,23.95
2018-05-25T18:29:08.586Z,23.96
2018-05-25T18:31:34.814Z,24.06
2018-05-25T18:34:00.784Z,23.93
2018-05-25T18:36:26.769Z,23.95
2018-05-25T18:38:52.747Z,23.96
2018-05-25T18:41:18.710Z,24.03
2018-05-25T18:43:44.680Z,24.00
2018-05-25T18:46:11.617Z,24.03
2018-05-25T18:48:37.578Z,24.04
2018-05-25T18:51:03.572Z,23.99
2018-05-25T18:53:29.546Z,23.94
2018-05-25T18:55:55.778Z,23.98
2018-05-25T18:58:21.718Z,23.96
2018-05-25T19:00:47.673Z,23.90
2018-05-25T19:03:13.621Z,23.91
2018-05-25T19:05:39.591Z,23.90
2018-05-25T19:08:05.562Z,23.84
2018-05-25T19:10:31.535Z,23.67
2018-05-25T19:12:57.514Z,23.53
2018-05-25T19:15:23.463Z,23.52
2018-05-25T19:17:49.814Z,23.46
2018-05-25T19:20:15.769Z,23.31
2018-05-25T19:22:41.709Z,23.03
2018-05-25T19:25:07.655Z,22.82
2018-05-25T19:27:33.646Z,22.85
2018-05-25T19:29:59.605Z,22.78
2018-05-25T19:32:25.652Z,22.84
2018-05-25T19:34:51.646Z,22.79
2018-05-25T19:37:17.630Z,22.39
2018-05-25T19:39:43.593Z,22.59
2018-05-25T19:42:09.617Z,22.46
2018-05-25T19:44:35.578Z,22.48
2018-05-25T19:47:01.571Z,22.34
2018-05-25T19:49:27.557Z,22.33
2018-05-25T19:51:53.537Z,22.47
2018-05-25T19:54:19.577Z,22.23
2018-05-25T19:56:45.549Z,22.20
2018-05-25T19:59:11.521Z,22.10
2018-05-25T20:01:37.503Z,22.03
2018-05-25T20:04:03.587Z,22.02
2018-05-25T20:06:29.491Z,21.93
2018-05-25T20:08:55.459Z,22.07
2018-05-25T20:11:21.490Z,22.09
2018-05-25T20:13:47.496Z,21.90
2018-05-25T20:16:13.514Z,21.87
2018-05-25T20:18:39.433Z,21.84
2018-05-25T20:21:05.449Z,21.77
2018-05-25T20:23:31.424Z,21.80
2018-05-25T20:25:57.378Z,21.72
2018-05-25T20:28:23.376Z,21.78
2018-05-25T20:30:49.351Z,21.52
2018-05-25T20:33:15.302Z,21.64
2018-05-25T20:35:41.252Z,21.47
2018-05-25T20:38:07.216Z,21.72
2018-05-25T20:40:33.173Z,21.53
2018-05-25T20:42:59.173Z,21.67
2018-05-25T20:45:25.139Z,21.82
2018-05-25T20:47:51.124Z,21.52
2018-05-25T20:50:17.130Z,21.39
2018-05-25T20:52:43.103Z,21.53
2018-05-25T20:55:09.105Z,21.29
2018-05-25T20:57:35.049Z,21.00
2018-05-25T21:00:00.996Z,20.99
2018-05-25T21:02:26.992Z,21.13
2018-05-25T21:04:52.923Z,21.07
2018-05-25T21:07:18.893Z,21.11
2018-05-25T21:09:44.862Z,21.06
2018-05-25T21:12:10.829Z,21.10
2018-05-25T21:14:36.768Z,21.24
2018-05-25T21:17:02.746Z,21.31
2018-05-25T21:19:28.762Z,21.22
2018-05-25T21:21:54.740Z,21.42
2018-05-25T21:24:20.691Z,21.35
2018-05-25T21:26:46.670Z,21.39
2018-05-25T21:29:12.652Z,21.00
2018-05-25T21:31:38.589Z,20.83
2018-05-25T21:34:04.573Z,20.56
2018-05-25T21:36:30.541Z,20.63
2018-05-25T21:38:56.528Z,20.64
2018-05-25T21:41:22.502Z,20.79
2018-05-25T21:43:48.446Z,20.55
2018-05-25T21:46:14.388Z,20.36
2018-05-25T21:48:40.334Z,20.37
2018-05-25T21:51:06.286Z,20.26
2018-05-25T21:53:32.271Z,20.18
2018-05-25T21:55:58.230Z,20.09
2018-05-25T21:58:24.187Z,20.06
2018-05-25T22:00:50.209Z,20.28
2018-05-25T22:03:16.168Z,20.30
2018-05-25T22:05:42.124Z,20.12
2018-05-25T22:08:08.083Z,20.43
2018-05-25T22:10:34.017Z,20.50
2018-05-25T22:12:59.991Z,20.27
2018-05-25T22:15:26.057Z,20.31
2018-05-25T22:17:52.062Z,20.60
2018-05-25T22:20:18.016Z,20.66
2018-05-25T22:22:43.988Z,20.19
2018-05-25T22:25:09.949Z,19.86
2018-05-25T22:27:35.922Z,19.82
2018-05-25T22:30:01.856Z,19.64
2018-05-25T22:32:27.820Z,19.57
2018-05-25T22:34:53.822Z,19.87
2018-05-25T22:37:19.773Z,19.67
2018-05-25T22:39:45.734Z,19.58
2018-05-25T22:42:11.713Z,19.68
2018-05-25T22:44:37.662Z,19.56
2018-05-25T22:47:03.602Z,19.85
2018-05-25T22:49:29.560Z,19.65
2018-05-25T22:51:55.527Z,19.31
2018-05-25T22:54:21.501Z,19.52
2018-05-25T22:56:47.462Z,19.35
2018-05-25T22:59:13.433Z,19.56
2018-05-25T23:01:39.396Z,19.75
2018-05-25T23:04:05.373Z,19.66
2018-05-25T23:06:31.325Z,19.43
2018-05-25T23:08:57.306Z,19.45
2018-05-25T23:11:23.259Z,19.15
2018-05-25T23:13:49.220Z,19.26
2018-05-25T23:16:15.178Z,19.25
2018-05-25T23:18:41.156Z,18.92
2018-05-25T23:21:07.085Z,18.95
2018-05-25T23:23:33.012Z,19.14
2018-05-25T23:25:58.938Z,19.14
2018-05-25T23:28:24.887Z,19.02
2018-05-25T23:30:50.827Z,18.93
2018-05-25T23:33:16.773Z,18.96
2018-05-25T23:35:42.717Z,19.19
2018-05-25T23:38:08.672Z,18.98
2018-05-25T23:40:34.628Z,18.99
2018-05-25T23:43:00.576Z,18.96
2018-05-25T23:45:26.543Z,18.81
2018-05-25T23:47:52.499Z,18.99
2018-05-25T23:50:18.453Z,18.86
2018-05-25T23:52:44.381Z,18.78
2018-05-25T23:55:10.353Z,18.74
2018-05-25T23:57:36.302Z,18.70
